createdAt,value
2022-09-18T00:01:34.153Z,97836.66
2022-09-18T00:04:05.358Z,97837.63
2022-09-18T00:06:36.966Z,97840.16
2022-09-18T00:09:10.841Z,97843.47
2022-09-18T00:11:45.064Z,97846.84
2022-09-18T00:14:20.515Z,97846.41
2022-09-18T00:16:48.305Z,97841.41
2022-09-18T00:19:17.166Z,97844.13
2022-09-18T00:21:48.461Z,97839.41
2022-09-18T00:24:17.760Z,97839.41
2022-09-18T00:26:46.488Z,97838.31
2022-09-18T00:29:15.188Z,97837.00
2022-09-18T00:31:42.554Z,97839.78
2022-09-18T00:34:14.578Z,97832.59
2022-09-18T00:36:42.208Z,97832.69
2022-09-18T00:39:09.363Z,97836.09
2022-09-18T00:41:41.834Z,97831.16
2022-09-18T00:44:38.189Z,97830.34
2022-09-18T00:47:10.527Z,97836.47
2022-09-18T00:49:44.551Z,97833.91
2022-09-18T00:52:14.549Z,97839.78
2022-09-18T00:54:47.558Z,97839.97
2022-09-18T00:57:27.499Z,97848.19
2022-09-18T00:59:55.327Z,97843.34
2022-09-18T01:02:22.762Z,97848.38
2022-09-18T01:04:51.363Z,97852.06
2022-09-18T01:07:49.982Z,97846.59
2022-09-18T01:10:39.117Z,97856.75
2022-09-18T01:13:45.542Z,97847.31
2022-09-18T01:16:32.253Z,97851.66
2022-09-18T01:19:36.791Z,97851.25
2022-09-18T01:22:34.346Z,97863.72
2022-09-18T01:25:59.368Z,97859.28
2022-09-18T01:28:45.190Z,97859.47
2022-09-18T01:31:26.048Z,97856.94
2022-09-18T01:34:04.690Z,97849.56
2022-09-18T01:36:39.972Z,97848.91
2022-09-18T01:39:26.127Z,97849.66
2022-09-18T01:41:56.034Z,97856.38
2022-09-18T01:44:31.036Z,97850.22
2022-09-18T01:47:01.607Z,97850.91
2022-09-18T01:49:37.379Z,97853.53
2022-09-18T01:52:16.710Z,97853.41
2022-09-18T01:54:50.152Z,97849.75
2022-09-18T01:57:39.241Z,97854.19
2022-09-18T02:00:11.666Z,97849.75
2022-09-18T02:02:47.138Z,97855.97
2022-09-18T02:05:25.069Z,97857.78
2022-09-18T02:08:04.189Z,97850.91
2022-09-18T02:10:38.414Z,97852.50
2022-09-18T02:13:09.951Z,97851.84
2022-09-18T02:15:40.239Z,97857.69
2022-09-18T02:18:27.180Z,97850.41
2022-09-18T02:20:57.296Z,97842.41
2022-09-18T02:23:28.176Z,97855.03
2022-09-18T02:26:02.048Z,97842.19
2022-09-18T02:28:32.464Z,97849.38
2022-09-18T02:30:59.483Z,97848.22
2022-09-18T02:33:30.608Z,97834.66
2022-09-18T02:36:21.996Z,97833.06
2022-09-18T02:39:26.255Z,97835.97
2022-09-18T02:42:23.209Z,97833.44
2022-09-18T02:45:20.518Z,97846.72
2022-09-18T02:48:20.224Z,97853.38
2022-09-18T02:51:29.070Z,97843.13
2022-09-18T02:54:20.027Z,97838.94
2022-09-18T02:56:57.218Z,97842.72
2022-09-18T02:59:45.326Z,97842.47
2022-09-18T03:02:13.195Z,97842.16
2022-09-18T03:04:40.080Z,97839.69
2022-09-18T03:07:06.965Z,97850.09
2022-09-18T03:09:34.827Z,97844.31
2022-09-18T03:12:02.914Z,97853.28
2022-09-18T03:14:29.735Z,97853.69
2022-09-18T03:16:56.673Z,97856.97
2022-09-18T03:19:23.607Z,97854.97
2022-09-18T03:21:51.261Z,97853.28
2022-09-18T03:24:19.499Z,97864.84
2022-09-18T03:26:47.349Z,97859.66
2022-09-18T03:29:14.640Z,97851.81
2022-09-18T03:31:41.682Z,97858.59
2022-09-18T03:34:08.642Z,97862.19
2022-09-18T03:36:36.342Z,97865.44
2022-09-18T03:39:04.469Z,97862.44
2022-09-18T03:41:31.829Z,97863.88
2022-09-18T03:43:58.599Z,97867.78
2022-09-18T03:46:25.676Z,97864.34
2022-09-18T03:48:53.716Z,97868.38
2022-09-18T03:51:20.944Z,97881.72
2022-09-18T03:53:51.056Z,97877.44
2022-09-18T03:56:18.424Z,97877.44
2022-09-18T03:58:45.425Z,97869.44
2022-09-18T04:01:13.742Z,97881.84
2022-09-18T04:03:40.892Z,97888.25
2022-09-18T04:06:08.201Z,97888.25
2022-09-18T04:08:36.164Z,97877.03
2022-09-18T04:11:04.620Z,97883.09
2022-09-18T04:13:33.611Z,97889.97
2022-09-18T04:16:00.973Z,97891.75
2022-09-18T04:18:28.550Z,97892.88
2022-09-18T04:20:55.317Z,97887.00
2022-09-18T04:23:22.263Z,97896.19
2022-09-18T04:25:49.206Z,97888.19
2022-09-18T04:28:16.057Z,97898.81
2022-09-18T04:30:43.253Z,97902.50
2022-09-18T04:33:10.077Z,97897.81
2022-09-18T04:35:36.890Z,97896.19
2022-09-18T04:38:04.059Z,97912.78
2022-09-18T04:40:31.336Z,97905.97
2022-09-18T04:42:58.683Z,97910.25
2022-09-18T04:45:25.747Z,97913.03
2022-09-18T04:47:52.642Z,97923.91
2022-09-18T04:50:19.534Z,97928.34
2022-09-18T04:52:46.523Z,97927.16
2022-09-18T04:55:13.336Z,97926.47
2022-09-18T04:57:41.065Z,97931.31
2022-09-18T05:00:09.871Z,97936.34
2022-09-18T05:02:38.797Z,97931.72
2022-09-18T05:05:06.128Z,97936.50
2022-09-18T05:07:33.115Z,97942.72
2022-09-18T05:10:01.061Z,97943.81
2022-09-18T05:12:28.070Z,97947.31
2022-09-18T05:14:55.036Z,97953.94
2022-09-18T05:17:21.984Z,97955.38
2022-09-18T05:19:48.817Z,97949.34
2022-09-18T05:22:15.827Z,97956.13
2022-09-18T05:24:42.615Z,97958.84
2022-09-18T05:27:09.480Z,97955.88
2022-09-18T05:29:36.556Z,97960.47
2022-09-18T05:32:03.631Z,97970.94
2022-09-18T05:34:30.929Z,97961.25
2022-09-18T05:36:57.910Z,97965.69
2022-09-18T05:39:24.766Z,97973.13
2022-09-18T05:41:51.533Z,97973.13
2022-09-18T05:44:20.093Z,97976.56
2022-09-18T05:46:48.521Z,97979.97
2022-09-18T05:49:15.507Z,97990.94
2022-09-18T05:51:42.540Z,97996.47
2022-09-18T05:54:09.375Z,97993.41
2022-09-18T05:56:36.265Z,98002.59
2022-09-18T05:59:03.223Z,98001.06
2022-09-18T06:01:31.565Z,98005.56
2022-09-18T06:03:59.641Z,98008.13
2022-09-18T06:06:30.239Z,98020.03
2022-09-18T06:08:57.673Z,98013.97
2022-09-18T06:11:24.802Z,98027.84
2022-09-18T06:13:52.576Z,98026.75
2022-09-18T06:16:20.706Z,98029.97
2022-09-18T06:18:47.625Z,98028.84
2022-09-18T06:21:15.094Z,98021.94
2022-09-18T06:23:42.693Z,98020.09
2022-09-18T06:26:14.710Z,98024.31
2022-09-18T06:28:42.834Z,98024.78
2022-09-18T06:31:09.972Z,98026.66
2022-09-18T06:33:36.896Z,98029.66
2022-09-18T06:36:08.848Z,98027.78
2022-09-18T06:38:36.114Z,98033.91
2022-09-18T06:41:03.302Z,98025.81
2022-09-18T06:43:30.697Z,98021.56
2022-09-18T06:45:58.758Z,98026.66
2022-09-18T06:48:27.067Z,98032.72
2022-09-18T06:50:57.088Z,98035.94
2022-09-18T06:53:24.904Z,98036.59
2022-09-18T06:55:52.404Z,98044.94
2022-09-18T06:58:20.616Z,98042.13
2022-09-18T07:00:47.736Z,98047.41
2022-09-18T07:03:14.673Z,98046.19
2022-09-18T07:05:47.030Z,98045.44
2022-09-18T07:08:14.146Z,98048.25
2022-09-18T07:10:41.111Z,98038.53
2022-09-18T07:13:08.544Z,98049.69
2022-09-18T07:15:36.056Z,98050.19
2022-09-18T07:18:09.310Z,98044.75
2022-09-18T07:20:36.513Z,98056.91
2022-09-18T07:23:03.820Z,98055.91
2022-09-18T07:25:34.011Z,98052.03
2022-09-18T07:28:10.743Z,98064.06
2022-09-18T07:30:39.583Z,98068.94
2022-09-18T07:33:09.192Z,98062.97
2022-09-18T07:35:36.746Z,98062.81
2022-09-18T07:38:06.418Z,98071.91
2022-09-18T07:40:34.560Z,98074.09
2022-09-18T07:43:07.752Z,98071.66
2022-09-18T07:45:36.015Z,98084.59
2022-09-18T07:48:08.107Z,98076.63
2022-09-18T07:50:35.535Z,98083.16
2022-09-18T07:53:05.351Z,98083.19
2022-09-18T07:55:35.988Z,98091.59
2022-09-18T07:58:07.120Z,98102.19
2022-09-18T08:00:36.662Z,98097.41
2022-09-18T08:03:13.859Z,98094.97
2022-09-18T08:05:43.018Z,98089.97
2022-09-18T08:08:15.766Z,98091.69
2022-09-18T08:10:45.508Z,98088.47
2022-09-18T08:13:12.978Z,98091.06
2022-09-18T08:15:44.388Z,98092.09
2022-09-18T08:18:13.999Z,98096.41
2022-09-18T08:20:43.698Z,98104.34
2022-09-18T08:23:15.714Z,98105.69
2022-09-18T08:25:49.016Z,98105.03
2022-09-18T08:28:27.304Z,98105.31
2022-09-18T08:31:01.855Z,98109.84
2022-09-18T08:33:29.411Z,98107.00
2022-09-18T08:36:04.491Z,98104.06
2022-09-18T08:38:32.332Z,98105.59
2022-09-18T08:41:14.945Z,98100.56
2022-09-18T08:44:21.815Z,98108.72
2022-09-18T08:47:18.702Z,98109.94
2022-09-18T08:50:22.707Z,98106.63
2022-09-18T08:53:14.604Z,98106.25
2022-09-18T08:55:48.558Z,98116.16
2022-09-18T08:58:56.983Z,98118.44
2022-09-18T09:01:49.953Z,98119.56
2022-09-18T09:04:28.130Z,98106.81
2022-09-18T09:07:31.535Z,98118.34
2022-09-18T09:10:49.935Z,98111.75
2022-09-18T09:14:01.470Z,98103.00
2022-09-18T09:16:43.152Z,98100.66
2022-09-18T09:19:32.504Z,98096.91
2022-09-18T09:22:39.833Z,98098.75
2022-09-18T09:25:38.304Z,98087.97
2022-09-18T09:28:18.507Z,98092.25
2022-09-18T09:30:56.110Z,98083.31
2022-09-18T09:33:39.423Z,98089.97
2022-09-18T09:36:15.844Z,98081.69
2022-09-18T09:38:56.060Z,98076.91
2022-09-18T09:41:45.190Z,98080.28
2022-09-18T09:44:53.974Z,98081.09
2022-09-18T09:47:45.549Z,98083.25
2022-09-18T09:50:51.450Z,98089.06
2022-09-18T09:53:19.898Z,98090.09
2022-09-18T09:56:20.259Z,98090.63
2022-09-18T09:58:59.352Z,98090.59
2022-09-18T10:01:35.275Z,98100.69
2022-09-18T10:04:29.555Z,98091.69
2022-09-18T10:07:25.641Z,98090.78
2022-09-18T10:10:26.772Z,98092.59
2022-09-18T10:13:06.479Z,98090.88
2022-09-18T10:15:37.862Z,98097.16
2022-09-18T10:18:16.619Z,98103.53
2022-09-18T10:20:46.735Z,98104.63
2022-09-18T10:23:20.905Z,98108.75
2022-09-18T10:26:01.006Z,98122.00
2022-09-18T10:28:31.104Z,98117.97
2022-09-18T10:31:13.577Z,98128.38
2022-09-18T10:33:47.686Z,98120.41
2022-09-18T10:36:23.629Z,98123.38
2022-09-18T10:38:51.995Z,98115.06
2022-09-18T10:41:22.939Z,98124.13
2022-09-18T10:44:24.686Z,98122.44
2022-09-18T10:47:09.353Z,98122.53
2022-09-18T10:49:49.773Z,98114.06
2022-09-18T10:52:36.787Z,98115.22
2022-09-18T10:55:07.256Z,98111.63
2022-09-18T10:57:56.371Z,98097.09
2022-09-18T11:00:27.244Z,98093.06
2022-09-18T11:02:59.767Z,98094.25
2022-09-18T11:05:33.101Z,98094.94
2022-09-18T11:08:06.627Z,98095.47
2022-09-18T11:10:34.325Z,98087.81
2022-09-18T11:13:03.971Z,98080.47
2022-09-18T11:15:36.380Z,98074.97
2022-09-18T11:18:13.909Z,98077.53
2022-09-18T11:20:46.624Z,98069.75
2022-09-18T11:23:28.843Z,98070.06
2022-09-18T11:26:28.398Z,98072.63
2022-09-18T11:29:16.294Z,98062.97
2022-09-18T11:31:55.233Z,98069.66
2022-09-18T11:34:33.199Z,98059.22
2022-09-18T11:37:07.107Z,98055.41
2022-09-18T11:39:44.301Z,98060.47
2022-09-18T11:42:16.198Z,98054.91
2022-09-18T11:44:45.295Z,98042.91
2022-09-18T11:47:26.948Z,98052.03
2022-09-18T11:50:19.286Z,98061.09
2022-09-18T11:52:58.948Z,98058.47
2022-09-18T11:55:36.617Z,98054.63
2022-09-18T11:58:12.632Z,98045.44
2022-09-18T12:01:06.786Z,98038.09
2022-09-18T12:03:55.274Z,98038.47
2022-09-18T12:06:50.336Z,98034.34
2022-09-18T12:09:48.968Z,98036.09
2022-09-18T12:12:27.195Z,98047.00
2022-09-18T12:15:09.614Z,98049.13
2022-09-18T12:18:08.749Z,98050.59
2022-09-18T12:21:04.926Z,98048.91
2022-09-18T12:23:32.411Z,98048.59
2022-09-18T12:26:32.357Z,98053.63
2022-09-18T12:29:24.043Z,98053.53
2022-09-18T12:32:11.655Z,98068.38
2022-09-18T12:35:30.962Z,98064.66
2022-09-18T12:38:06.879Z,98053.72
2022-09-18T12:40:51.696Z,98052.13
2022-09-18T12:43:45.085Z,98049.25
2022-09-18T12:46:42.905Z,98042.56
2022-09-18T12:49:36.998Z,98049.25
2022-09-18T12:52:12.995Z,98040.97
2022-09-18T12:55:36.363Z,98041.81
2022-09-18T12:58:31.028Z,98045.72
2022-09-18T13:01:04.370Z,98042.84
2022-09-18T13:03:38.673Z,98034.13
2022-09-18T13:06:25.305Z,98037.84
2022-09-18T13:09:02.174Z,98031.72
2022-09-18T13:11:42.828Z,98036.00
2022-09-18T13:14:24.818Z,98031.31
2022-09-18T13:17:12.200Z,98030.72
2022-09-18T13:19:50.575Z,98022.97
2022-09-18T13:22:21.344Z,98018.78
2022-09-18T13:24:55.505Z,98018.13
2022-09-18T13:27:25.601Z,98008.34
2022-09-18T13:29:52.854Z,98020.50
2022-09-18T13:32:42.254Z,98017.84
2022-09-18T13:35:12.457Z,98020.31
2022-09-18T13:37:42.485Z,98035.81
2022-09-18T13:40:39.565Z,98032.16
2022-09-18T13:43:28.431Z,98035.00
2022-09-18T13:46:07.072Z,98034.28
2022-09-18T13:48:45.683Z,98032.97
2022-09-18T13:51:29.517Z,98022.75
2022-09-18T13:54:13.719Z,98022.31
2022-09-18T13:57:03.190Z,98016.53
2022-09-18T13:59:54.297Z,98022.88
2022-09-18T14:02:37.752Z,98019.84
2022-09-18T14:05:09.915Z,98019.75
2022-09-18T14:07:36.752Z,98025.50
2022-09-18T14:10:21.565Z,98030.81
2022-09-18T14:13:19.195Z,98031.66
2022-09-18T14:16:09.297Z,98026.47
2022-09-18T14:18:48.293Z,98028.38
2022-09-18T14:21:26.894Z,98020.28
2022-09-18T14:24:38.863Z,98019.03
2022-09-18T14:27:57.438Z,98017.94
2022-09-18T14:30:29.231Z,98008.81
2022-09-18T14:33:08.271Z,98003.38
2022-09-18T14:35:50.036Z,98005.81
2022-09-18T14:38:26.757Z,98002.97
2022-09-18T14:41:23.167Z,98006.16
2022-09-18T14:44:04.250Z,98005.19
2022-09-18T14:46:32.863Z,98003.53
2022-09-18T14:49:01.887Z,98003.53
2022-09-18T14:51:44.728Z,97996.63
2022-09-18T14:54:24.820Z,97999.06
2022-09-18T14:56:58.942Z,98000.13
2022-09-18T14:59:28.835Z,97989.00
2022-09-18T15:02:23.032Z,97991.25
2022-09-18T15:04:50.641Z,97993.81
2022-09-18T15:07:23.306Z,97988.84
2022-09-18T15:09:56.605Z,97985.16
2022-09-18T15:12:26.350Z,97991.72
2022-09-18T15:14:54.606Z,97987.50
2022-09-18T15:17:26.762Z,97986.88
2022-09-18T15:20:13.981Z,97985.38
2022-09-18T15:22:41.730Z,97987.78
2022-09-18T15:25:14.693Z,97990.94
2022-09-18T15:27:43.630Z,97984.25
2022-09-18T15:30:19.639Z,97975.97
2022-09-18T15:33:04.103Z,97977.41
2022-09-18T15:35:38.837Z,97984.94
2022-09-18T15:38:19.951Z,97982.63
2022-09-18T15:40:48.662Z,97977.81
2022-09-18T15:43:31.065Z,97969.19
2022-09-18T15:46:08.563Z,97968.94
2022-09-18T15:48:44.213Z,97967.63
2022-09-18T15:51:24.823Z,97974.81
2022-09-18T15:54:10.795Z,97975.25
2022-09-18T15:56:53.742Z,97975.25
2022-09-18T15:59:33.550Z,97982.81
2022-09-18T16:02:08.123Z,97986.69
2022-09-18T16:04:36.569Z,97991.47
2022-09-18T16:07:18.334Z,97987.78
2022-09-18T16:09:48.155Z,97974.09
2022-09-18T16:12:30.371Z,97974.97
2022-09-18T16:15:19.340Z,97973.06
2022-09-18T16:17:46.419Z,97978.56
2022-09-18T16:20:34.645Z,97977.19
2022-09-18T16:23:59.034Z,97971.78
2022-09-18T16:26:32.993Z,97974.91
2022-09-18T16:29:02.912Z,97968.41
2022-09-18T16:31:35.078Z,97974.88
2022-09-18T16:34:21.759Z,97977.94
2022-09-18T16:36:51.084Z,97964.59
2022-09-18T16:39:26.099Z,97965.63
2022-09-18T16:41:53.883Z,97964.16
2022-09-18T16:44:21.014Z,97961.59
2022-09-18T16:46:55.825Z,97960.13
2022-09-18T16:49:28.654Z,97953.84
2022-09-18T16:52:01.766Z,97947.16
2022-09-18T16:54:32.014Z,97954.91
2022-09-18T16:57:21.273Z,97944.31
2022-09-18T16:59:51.693Z,97938.69
2022-09-18T17:02:25.821Z,97936.78
2022-09-18T17:04:53.737Z,97939.31
2022-09-18T17:07:22.669Z,97936.69
2022-09-18T17:09:56.762Z,97936.88
2022-09-18T17:12:31.571Z,97932.75
2022-09-18T17:14:58.990Z,97919.06
2022-09-18T17:17:27.795Z,97935.06
2022-09-18T17:19:57.375Z,97935.91
2022-09-18T17:22:24.543Z,97920.34
2022-09-18T17:25:02.706Z,97927.50
2022-09-18T17:27:30.178Z,97937.38
2022-09-18T17:30:00.950Z,97930.41
2022-09-18T17:32:27.882Z,97931.81
2022-09-18T17:34:56.969Z,97946.88
2022-09-18T17:37:26.684Z,97960.41
2022-09-18T17:39:54.046Z,97959.91
2022-09-18T17:42:21.516Z,97957.94
2022-09-18T17:44:48.995Z,97955.91
2022-09-18T17:47:16.199Z,97948.00
2022-09-18T17:49:46.706Z,97954.09
2022-09-18T17:52:29.687Z,97946.25
2022-09-18T17:55:00.709Z,97945.19
2022-09-18T17:57:35.436Z,97957.19
2022-09-18T18:00:07.765Z,97953.88
2022-09-18T18:02:34.823Z,97953.06
2022-09-18T18:05:13.758Z,97957.75
2022-09-18T18:07:47.144Z,97959.72
2022-09-18T18:13:25.744Z,97965.97
2022-09-18T18:16:26.236Z,97967.84
2022-09-18T18:19:18.762Z,97962.09
2022-09-18T18:21:50.775Z,97969.91
2022-09-18T18:24:31.920Z,97967.88
2022-09-18T18:27:03.076Z,97960.94
2022-09-18T18:30:00.758Z,97972.19
2022-09-18T18:32:43.049Z,97975.38
2022-09-18T18:35:15.943Z,97993.00
2022-09-18T18:37:44.898Z,97989.50
2022-09-18T18:43:14.588Z,97997.59
2022-09-18T18:45:56.109Z,98001.19
2022-09-18T18:48:27.818Z,98012.47
2022-09-18T18:54:03.938Z,98004.56
2022-09-18T18:56:37.776Z,98002.44
2022-09-18T18:59:15.867Z,98003.88
2022-09-18T19:01:47.740Z,97998.34
2022-09-18T19:04:21.549Z,98005.25
2022-09-18T19:06:56.932Z,97997.00
2022-09-18T19:09:26.679Z,98008.25
2022-09-18T19:11:54.233Z,98002.53
2022-09-18T19:14:31.862Z,98012.50
2022-09-18T19:17:02.529Z,98002.53
2022-09-18T19:19:30.909Z,98010.28
2022-09-18T19:21:59.701Z,98011.03
2022-09-18T19:24:28.830Z,98015.56
2022-09-18T19:26:59.255Z,98018.78
2022-09-18T19:29:28.999Z,98024.25
2022-09-18T19:31:58.551Z,98014.44
2022-09-18T19:34:27.872Z,98006.53
2022-09-18T19:36:56.074Z,98012.38
2022-09-18T19:39:24.730Z,98005.97
2022-09-18T19:42:08.101Z,98009.34
2022-09-18T19:44:44.630Z,98012.63
2022-09-18T19:47:26.053Z,98007.19
2022-09-18T19:49:55.639Z,98016.53
2022-09-18T19:52:28.816Z,98008.53
2022-09-18T19:54:58.490Z,98008.44
2022-09-18T19:57:28.687Z,98012.78
2022-09-18T19:59:57.221Z,98003.25
2022-09-18T20:02:25.504Z,97999.84
2022-09-18T20:04:52.689Z,97996.34
2022-09-18T20:07:20.775Z,97993.53
2022-09-18T20:09:48.792Z,97992.94
2022-09-18T20:12:15.947Z,97982.31
2022-09-18T20:14:43.054Z,97991.94
2022-09-18T20:17:11.091Z,97982.88
2022-09-18T20:19:38.134Z,97982.97
2022-09-18T20:22:06.013Z,97981.97
2022-09-18T20:24:36.118Z,97988.84
2022-09-18T20:27:03.486Z,97986.88
2022-09-18T20:29:31.157Z,97982.53
2022-09-18T20:31:58.811Z,97990.47
2022-09-18T20:34:26.591Z,97989.88
2022-09-18T20:36:54.932Z,97985.69
2022-09-18T20:39:22.284Z,97976.00
2022-09-18T20:41:51.278Z,97974.69
2022-09-18T20:44:19.232Z,97984.97
2022-09-18T20:46:47.104Z,97979.69
2022-09-18T20:49:17.453Z,97975.28
2022-09-18T20:51:47.069Z,97978.50
2022-09-18T20:54:16.056Z,97968.22
2022-09-18T20:56:44.357Z,97974.06
2022-09-18T20:59:16.635Z,97974.66
2022-09-18T21:01:47.379Z,97975.59
2022-09-18T21:04:19.686Z,97965.78
2022-09-18T21:06:57.772Z,97965.63
2022-09-18T21:09:28.749Z,97964.06
2022-09-18T21:11:57.258Z,97959.06
2022-09-18T21:14:25.728Z,97961.34
2022-09-18T21:16:54.051Z,97952.31
2022-09-18T21:19:24.103Z,97962.75
2022-09-18T21:21:52.546Z,97962.75
2022-09-18T21:24:22.805Z,97960.59
2022-09-18T21:26:51.397Z,97958.34
2022-09-18T21:29:26.428Z,97960.13
2022-09-18T21:32:02.043Z,97954.66
2022-09-18T21:34:33.628Z,97962.59
2022-09-18T21:37:08.794Z,97961.00
2022-09-18T21:39:39.629Z,97952.97
2022-09-18T21:42:10.227Z,97955.81
2022-09-18T21:44:39.602Z,97949.94
2022-09-18T21:47:11.879Z,97954.25
2022-09-18T21:49:39.592Z,97952.31
2022-09-18T21:52:09.058Z,97951.28
2022-09-18T21:54:36.853Z,97953.16
2022-09-18T21:57:05.087Z,97952.19
2022-09-18T21:59:32.722Z,97953.72
2022-09-18T22:02:03.643Z,97952.78
2022-09-18T22:04:32.925Z,97953.66
2022-09-18T22:07:02.125Z,97959.94
2022-09-18T22:09:35.659Z,97955.81
2022-09-18T22:12:03.927Z,97951.09
2022-09-18T22:14:34.979Z,97944.00
2022-09-18T22:17:06.607Z,97946.75
2022-09-18T22:19:38.043Z,97939.78
2022-09-18T22:22:07.862Z,97945.91
2022-09-18T22:24:35.569Z,97944.97
2022-09-18T22:27:08.697Z,97951.94
2022-09-18T22:29:39.507Z,97946.66
2022-09-18T22:32:08.297Z,97946.00
2022-09-18T22:34:36.552Z,97945.50
2022-09-18T22:37:05.102Z,97949.78
2022-09-18T22:39:32.666Z,97942.09
2022-09-18T22:42:00.194Z,97946.81
2022-09-18T22:44:27.547Z,97947.53
2022-09-18T22:46:54.750Z,97951.78
2022-09-18T22:49:23.980Z,97940.00
2022-09-18T22:51:52.087Z,97938.97
2022-09-18T22:54:24.599Z,97942.47
2022-09-18T22:56:53.224Z,97945.28
2022-09-18T22:59:24.324Z,97939.06
2022-09-18T23:02:00.703Z,97945.09
2022-09-18T23:04:31.138Z,97940.69
2022-09-18T23:06:59.500Z,97941.88
2022-09-18T23:09:28.113Z,97943.38
2022-09-18T23:11:57.159Z,97949.31
2022-09-18T23:14:28.596Z,97943.19
2022-09-18T23:16:58.223Z,97944.91
2022-09-18T23:19:32.821Z,97939.50
2022-09-18T23:22:00.348Z,97943.09
2022-09-18T23:24:28.192Z,97938.63
2022-09-18T23:26:58.608Z,97941.28
2022-09-18T23:29:28.496Z,97932.41
2022-09-18T23:31:57.638Z,97943.38
2022-09-18T23:34:30.890Z,97931.78
2022-09-18T23:37:00.400Z,97940.63
2022-09-18T23:39:34.644Z,97939.81
2022-09-18T23:42:05.820Z,97939.72
2022-09-18T23:44:34.319Z,97938.25
2022-09-18T23:47:01.927Z,97938.34
2022-09-18T23:49:30.293Z,97942.06
2022-09-18T23:51:59.560Z,97936.59
2022-09-18T23:54:29.944Z,97947.25
2022-09-18T23:56:57.640Z,97949.50
2022-09-18T23:59:27.534Z,97941.59
